Time,TemperatureF,DewpointF,PressureIn,WindDirection,WindDirectionDegrees,WindSpeedMPH,WindSpeedGustMPH,Humidity,HourlyPrecipIn,Conditions,Clouds,dailyrainin,SoftwareType,DateUTC
2013-01-02 00:00:00,36.5,32.0,30.90,SW,224,6.0,6.0,17,0.00,PR,BKN,0.00,Misterhouse,2013-01-02 08:00:00,
2013-01-02 00:10:00,36.1,32.0,30.90,SW,220,5.0,6.0,17,0.00,PR,BKN,0.00,Misterhouse,2013-01-02 08:10:00,
2013-01-02 00:15:00,36.0,32.0,30.90,SSW,205,4.0,4.0,17,0.00,PR,BKN,0.00,Misterhouse,2013-01-02 08:15:00,
2013-01-02 00:25:00,35.4,32.0,30.90,WNW,284,5.0,5.0,17,0.00,PR,BKN,0.00,Misterhouse,2013-01-02 08:25:00,
2013-01-02 00:30:00,34.9,32.0,30.90,West,280,4.0,4.0,17,0.00,PR,BKN,0.00,Misterhouse,2013-01-02 08:30:00,
2013-01-02 00:35:00,34.5,32.0,30.90,SW,214,5.0,5.0,17,0.00,PR,BKN,0.00,Misterhouse,2013-01-02 08:35:00,
2013-01-02 00:40:00,34.2,32.0,30.90,SSW,210,4.0,6.0,17,0.00,PR,BKN,0.00,Misterhouse,2013-01-02 08:40:00,
2013-01-02 00:45:00,34.2,32.0,30.90,SW,216,3.0,4.0,17,0.00,PR,BKN,0.00,Misterhouse,2013-01-02 08:45:00,
2013-01-02 00:50:00,33.8,32.0,30.90,WNW,296,0.0,0.0,17,0.00,PR,BKN,0.00,Misterhouse,2013-01-02 08:50:00,
2013-01-02 01:00:00,33.3,32.0,30.90,WSW,251,5.0,5.0,18,0.00,PR,BKN,0.00,Misterhouse,2013-01-02 09:00:00,
2013-01-02 01:10:00,33.4,32.0,30.87,WSW,246,3.0,3.0,18,0.00,PR,BKN,0.00,Misterhouse,2013-01-02 09:10:00,
2013-01-02 01:15:00,33.3,32.0,30.87,SSW,213,3.0,3.0,18,0.00,PR,BKN,0.00,Misterhouse,2013-01-02 09:15:00,
2013-01-02 01:20:00,33.1,32.0,30.90,SW,232,0.0,0.0,18,0.00,PR,BKN,0.00,Misterhouse,2013-01-02 09:20:00,
2013-01-02 01:25:00,33.1,32.0,30.90,West,263,0.0,3.0,18,0.00,PR,BKN,0.00,Misterhouse,2013-01-02 09:25:00,
2013-01-02 01:30:00,32.9,32.0,30.90,SW,219,4.0,4.0,18,0.00,PR,BKN,0.00,Misterhouse,2013-01-02 09:30:00,
2013-01-02 01:40:00,32.2,32.0,30.90,SSW,199,0.0,4.0,15,0.00,PR,BKN,0.00,Misterhouse,2013-01-02 09:40:00,
2013-01-02 01:45:00,31.6,32.0,30.90,East,80,4.0,4.0,15,0.00,PR,BKN,0.00,Misterhouse,2013-01-02 09:45:00,
2013-01-02 01:50:00,31.6,32.0,30.90,ENE,73,0.0,0.0,15,0.00,PR,BKN,0.00,Misterhouse,2013-01-02 09:50:00,
2013-01-02 01:55:00,31.5,32.0,30.90,East,81,3.0,0.0,15,0.00,PR,BKN,0.00,Misterhouse,2013-01-02 09:55:00,
2013-01-02 02:00:00,31.3,32.0,30.90,East,80,0.0,0.0,15,0.00,PR,BKN,0.00,Misterhouse,2013-01-02 10:00:00,
2013-01-02 02:05:00,31.3,32.0,30.90,East,81,0.0,0.0,15,0.00,PR,BKN,0.00,Misterhouse,2013-01-02 10:05:00,
2013-01-02 02:10:00,31.1,32.0,30.90,East,80,0.0,0.0,15,0.00,PR,BKN,0.00,Misterhouse,2013-01-02 10:10:00,
2013-01-02 02:15:00,30.6,32.0,30.90,ESE,106,0.0,0.0,15,0.00,PR,BKN,0.00,Misterhouse,2013-01-02 10:15:00,
2013-01-02 02:20:00,30.6,32.0,30.87,ESE,113,0.0,4.0,15,0.00,PR,BKN,0.00,Misterhouse,2013-01-02 10:20:00,
2013-01-02 02:25:00,30.6,32.0,30.87,ESE,110,0.0,3.0,15,0.00,PR,BKN,0.00,Misterhouse,2013-01-02 10:25:00,
2013-01-02 02:30:00,30.9,32.0,30.87,ENE,70,0.0,0.0,15,0.00,PR,BKN,0.00,Misterhouse,2013-01-02 10:30:00,
2013-01-02 02:35:00,30.9,32.0,30.90,North,353,0.0,0.0,15,0.00,PR,BKN,0.00,Misterhouse,2013-01-02 10:35:00,
2013-01-02 02:45:00,30.0,32.0,30.90,North,0,0.0,0.0,15,0.00,PR,BKN,0.00,Misterhouse,2013-01-02 10:45:00,
2013-01-02 02:55:00,29.7,32.0,30.90,North,0,0.0,3.0,15,0.00,PR,BKN,0.00,Misterhouse,2013-01-02 10:55:00,
2013-01-02 03:00:00,29.7,32.0,30.90,SE,131,5.0,5.0,15,0.00,PR,BKN,0.00,Misterhouse,2013-01-02 11:00:00,
2013-01-02 03:10:00,30.6,32.0,30.90,ESE,118,0.0,0.0,15,0.00,PR,BKN,0.00,Misterhouse,2013-01-02 11:10:00,
2013-01-02 03:15:00,30.4,32.0,30.90,ESE,120,0.0,0.0,15,0.00,PR,BKN,0.00,Misterhouse,2013-01-02 11:15:00,
2013-01-02 03:20:00,30.4,32.0,30.90,ESE,120,0.0,0.0,15,0.00,PR,BKN,0.00,Misterhouse,2013-01-02 11:20:00,
2013-01-02 03:25:00,30.2,32.0,30.90,ESE,116,3.0,3.0,15,0.00,PR,BKN,0.00,Misterhouse,2013-01-02 11:25:00,
2013-01-02 03:30:00,30.2,32.0,30.90,SE,143,3.0,3.0,15,0.00,PR,BKN,0.00,Misterhouse,2013-01-02 11:30:00,
2013-01-02 03:35:00,30.0,32.0,30.90,SE,133,2.0,4.0,15,0.00,PR,BKN,0.00,Misterhouse,2013-01-02 11:35:00,
2013-01-02 03:40:00,29.8,32.0,30.90,SE,129,0.0,0.0,15,0.00,PR,BKN,0.00,Misterhouse,2013-01-02 11:40:00,
2013-01-02 03:45:00,30.0,32.0,30.90,ENE,74,5.0,5.0,15,0.00,PR,BKN,0.00,Misterhouse,2013-01-02 11:45:00,
2013-01-02 03:50:00,30.0,32.0,30.90,East,97,3.0,3.0,15,0.00,PR,BKN,0.00,Misterhouse,2013-01-02 11:50:00,
2013-01-02 03:55:00,29.7,32.0,30.90,ESE,112,0.0,4.0,15,0.00,PR,BKN,0.00,Misterhouse,2013-01-02 11:55:00,
2013-01-02 04:00:00,29.5,32.0,30.90,East,101,4.0,4.0,15,0.00,PR,BKN,0.00,Misterhouse,2013-01-02 12:00:00,
2013-01-02 04:05:00,29.5,32.0,30.87,East,86,5.0,5.0,15,0.00,PR,BKN,0.00,Misterhouse,2013-01-02 12:05:00,
2013-01-02 04:10:00,29.5,32.0,30.87,ESE,117,3.0,6.0,15,0.00,PR,BKN,0.00,Misterhouse,2013-01-02 12:10:00,
2013-01-02 04:15:00,29.7,32.0,30.87,East,87,6.0,6.0,15,0.00,PR,BKN,0.00,Misterhouse,2013-01-02 12:15:00,
2013-01-02 04:25:00,29.8,32.0,30.87,ESE,104,3.0,4.0,15,0.00,PR,BKN,0.00,Misterhouse,2013-01-02 12:25:00,
2013-01-02 04:30:00,29.7,32.0,30.87,East,99,6.0,8.0,15,0.00,PR,BKN,0.00,Misterhouse,2013-01-02 12:30:00,
2013-01-02 04:40:00,29.5,32.0,30.87,East,88,4.0,5.0,15,0.00,PR,BKN,0.00,Misterhouse,2013-01-02 12:40:00,
2013-01-02 04:45:00,29.5,32.0,30.87,ESE,108,4.0,8.0,15,0.00,PR,BKN,0.00,Misterhouse,2013-01-02 12:45:00,
2013-01-02 04:55:00,29.3,32.0,30.87,ESE,117,4.0,4.0,15,0.00,PR,BKN,0.00,Misterhouse,2013-01-02 12:55:00,
2013-01-02 05:00:00,29.3,32.0,30.87,East,100,4.0,5.0,15,0.00,PR,BKN,0.00,Misterhouse,2013-01-02 13:00:00,
2013-01-02 05:10:00,29.3,32.0,30.87,ENE,77,0.0,0.0,15,0.00,PR,BKN,0.00,Misterhouse,2013-01-02 13:10:00,
2013-01-02 05:15:00,29.1,32.0,30.87,ESE,114,3.0,8.0,15,0.00,PR,BKN,0.00,Misterhouse,2013-01-02 13:15:00,
2013-01-02 05:20:00,29.5,32.0,30.87,ENE,75,8.0,8.0,15,0.00,PR,BKN,0.00,Misterhouse,2013-01-02 13:20:00,
2013-01-02 05:25:00,29.5,32.0,30.87,East,99,4.0,4.0,15,0.00,PR,BKN,0.00,Misterhouse,2013-01-02 13:25:00,
2013-01-02 05:30:00,29.5,32.0,30.87,East,99,3.0,3.0,15,0.00,PR,BKN,0.00,Misterhouse,2013-01-02 13:30:00,
2013-01-02 05:40:00,30.6,32.0,30.87,East,91,4.0,5.0,15,0.00,PR,BKN,0.00,Misterhouse,2013-01-02 13:40:00,
2013-01-02 05:45:00,30.7,32.0,30.87,SE,146,4.0,4.0,15,0.00,PR,BKN,0.00,Misterhouse,2013-01-02 13:45:00,
2013-01-02 05:50:00,30.7,32.0,30.87,SE,133,4.0,5.0,15,0.00,PR,BKN,0.00,Misterhouse,2013-01-02 13:50:00,
2013-01-02 06:00:00,30.4,32.0,30.87,ESE,110,3.0,3.0,15,0.00,PR,BKN,0.00,Misterhouse,2013-01-02 14:00:00,
2013-01-02 06:10:00,30.4,32.0,30.87,SSE,168,0.0,0.0,18,0.00,PR,BKN,0.00,Misterhouse,2013-01-02 14:10:00,
2013-01-02 06:15:00,30.6,32.0,30.87,ESE,112,0.0,4.0,18,0.00,PR,BKN,0.00,Misterhouse,2013-01-02 14:15:00,
2013-01-02 06:25:00,31.5,32.0,30.87,East,83,4.0,6.0,18,0.00,PR,BKN,0.00,Misterhouse,2013-01-02 14:25:00,
2013-01-02 06:30:00,32.0,32.0,30.87,ENE,65,6.0,6.0,18,0.00,PR,BKN,0.00,Misterhouse,2013-01-02 14:30:00,
2013-01-02 06:40:00,31.8,32.0,30.87,ESE,121,3.0,4.0,18,0.00,PR,BKN,0.00,Misterhouse,2013-01-02 14:40:00,
2013-01-02 06:45:00,31.8,32.0,30.87,East,99,0.0,4.0,18,0.00,PR,BKN,0.00,Misterhouse,2013-01-02 14:45:00,
2013-01-02 06:55:00,31.1,32.0,30.87,SE,125,0.0,0.0,18,0.00,PR,BKN,0.00,Misterhouse,2013-01-02 14:55:00,
2013-01-02 07:00:00,30.7,32.0,30.87,SSE,149,0.0,0.0,15,0.00,PR,BKN,0.00,Misterhouse,2013-01-02 15:00:00,
2013-01-02 07:10:00,30.2,32.0,30.87,SSW,193,0.0,0.0,15,0.00,PR,BKN,0.00,Misterhouse,2013-01-02 15:10:00,
2013-01-02 07:15:00,29.8,32.0,30.87,SSW,193,0.0,0.0,15,0.00,PR,BKN,0.00,Misterhouse,2013-01-02 15:15:00,
2013-01-02 07:20:00,29.8,32.0,30.87,East,80,3.0,3.0,15,0.00,PR,BKN,0.00,Misterhouse,2013-01-02 15:20:00,
2013-01-02 07:25:00,30.0,32.0,30.87,SE,140,4.0,4.0,15,0.00,PR,BKN,0.00,Misterhouse,2013-01-02 15:25:00,
2013-01-02 07:30:00,29.8,32.0,30.87,ESE,120,3.0,4.0,15,0.00,PR,BKN,0.00,Misterhouse,2013-01-02 15:30:00,
2013-01-02 07:35:00,30.4,32.0,30.87,WNW,303,2.0,4.0,15,0.00,PR,BKN,0.00,Misterhouse,2013-01-02 15:35:00,
2013-01-02 07:40:00,31.3,32.0,30.87,West,265,0.0,0.0,18,0.00,PR,BKN,0.00,Misterhouse,2013-01-02 15:40:00,
2013-01-02 07:50:00,32.2,32.0,30.87,SW,225,4.0,5.0,18,0.00,PR,BKN,0.00,Misterhouse,2013-01-02 15:50:00,
2013-01-02 07:55:00,32.5,32.0,30.87,SSW,212,4.0,5.0,18,0.00,PR,BKN,0.00,Misterhouse,2013-01-02 15:55:00,
2013-01-02 08:00:00,32.5,32.0,30.87,SW,224,2.0,4.0,18,0.00,PR,BKN,0.00,Misterhouse,2013-01-02 16:00:00,
2013-01-02 08:05:00,32.4,32.0,30.87,SW,224,0.0,0.0,18,0.00,PR,BKN,0.00,Misterhouse,2013-01-02 16:05:00,
2013-01-02 08:10:00,32.5,32.0,30.87,SW,231,0.0,3.0,18,0.00,PR,BKN,0.00,Misterhouse,2013-01-02 16:10:00,
2013-01-02 08:20:00,32.7,32.0,30.87,SW,230,3.0,0.0,18,0.00,PR,BKN,0.00,Misterhouse,2013-01-02 16:20:00,
2013-01-02 08:30:00,33.6,32.0,30.87,SW,222,2.0,0.0,18,0.00,PR,BKN,0.00,Misterhouse,2013-01-02 16:30:00,
2013-01-02 08:35:00,34.0,32.0,30.87,WSW,246,2.0,0.0,17,0.00,PR,BKN,0.00,Misterhouse,2013-01-02 16:35:00,
2013-01-02 08:40:00,34.2,32.0,30.87,SW,224,0.0,3.0,17,0.00,PR,BKN,0.00,Misterhouse,2013-01-02 16:40:00,
2013-01-02 08:50:00,34.3,32.0,30.87,WSW,247,3.0,4.0,17,0.00,PR,BKN,0.00,Misterhouse,2013-01-02 16:50:00,
2013-01-02 08:55:00,34.5,32.0,30.87,WSW,240,3.0,0.0,17,0.00,PR,BKN,0.00,Misterhouse,2013-01-02 16:55:00,
2013-01-02 09:05:00,36.0,32.0,30.87,West,270,4.0,4.0,17,0.00,PR,BKN,0.00,Misterhouse,2013-01-02 17:05:00,
2013-01-02 09:15:00,36.1,32.0,30.87,SW,230,4.0,4.0,17,0.00,PR,BKN,0.00,Misterhouse,2013-01-02 17:15:00,
2013-01-02 09:20:00,36.3,32.0,30.87,WSW,246,4.0,4.0,17,0.00,PR,BKN,0.00,Misterhouse,2013-01-02 17:20:00,
2013-01-02 09:30:00,37.2,32.0,30.87,ESE,117,4.0,4.0,17,0.00,PR,BKN,0.00,Misterhouse,2013-01-02 17:30:00,
2013-01-02 09:35:00,37.6,32.0,30.87,West,274,0.0,4.0,16,0.00,PR,BKN,0.00,Misterhouse,2013-01-02 17:35:00,
2013-01-02 09:40:00,37.9,32.0,30.87,NW,306,4.0,6.0,16,0.00,PR,BKN,0.00,Misterhouse,2013-01-02 17:40:00,
2013-01-02 09:50:00,38.1,32.0,30.87,WNW,289,5.0,5.0,16,0.00,PR,BKN,0.00,Misterhouse,2013-01-02 17:50:00,
2013-01-02 09:55:00,38.7,32.0,30.87,NW,314,6.0,6.0,16,0.00,PR,BKN,0.00,Misterhouse,2013-01-02 17:55:00,
2013-01-02 10:00:00,38.7,32.0,30.87,NNW,345,6.0,6.0,16,0.00,PR,BKN,0.00,Misterhouse,2013-01-02 18:00:00,
2013-01-02 10:10:00,38.1,32.0,30.87,NW,325,6.0,6.0,16,0.00,PR,BKN,0.00,Misterhouse,2013-01-02 18:10:00,
2013-01-02 10:15:00,38.3,32.0,30.87,NW,310,7.0,7.0,16,0.00,PR,BKN,0.00,Misterhouse,2013-01-02 18:15:00,
2013-01-02 10:20:00,38.5,32.0,30.87,NW,317,7.0,8.0,16,0.00,PR,BKN,0.00,Misterhouse,2013-01-02 18:20:00,
2013-01-02 10:25:00,38.3,32.0,30.87,NW,308,4.0,8.0,16,0.00,PR,BKN,0.00,Misterhouse,2013-01-02 18:25:00,
2013-01-02 10:30:00,38.7,32.0,30.87,NNW,339,6.0,6.0,16,0.00,PR,BKN,0.00,Misterhouse,2013-01-02 18:30:00,
2013-01-02 10:35:00,39.2,32.0,30.87,NNW,329,6.0,8.0,16,0.00,PR,BKN,0.00,Misterhouse,2013-01-02 18:35:00,
2013-01-02 10:40:00,39.4,32.0,30.87,NNW,343,6.0,6.0,16,0.00,PR,BKN,0.00,Misterhouse,2013-01-02 18:40:00,
2013-01-02 10:50:00,39.7,32.0,30.87,NW,319,5.0,6.0,16,0.00,PR,BKN,0.00,Misterhouse,2013-01-02 18:50:00,
2013-01-02 11:00:00,40.3,32.0,30.87,North,353,6.0,6.0,16,0.00,PR,BKN,0.00,Misterhouse,2013-01-02 19:00:00,
2013-01-02 11:10:00,41.5,32.0,30.87,NW,306,9.0,9.0,16,0.00,PR,BKN,0.00,Misterhouse,2013-01-02 19:10:00,
2013-01-02 11:15:00,41.7,32.0,30.87,WNW,294,9.0,9.0,16,0.00,PR,BKN,0.00,Misterhouse,2013-01-02 19:15:00,
2013-01-02 11:20:00,42.3,32.0,30.87,NW,309,8.0,10.0,16,0.00,PR,BKN,0.00,Misterhouse,2013-01-02 19:20:00,
2013-01-02 11:25:00,42.8,32.0,30.87,North,353,8.0,8.0,15,0.00,PR,BKN,0.00,Misterhouse,2013-01-02 19:25:00,
2013-01-02 11:30:00,43.5,32.0,30.87,NNW,331,8.0,10.0,15,0.00,PR,BKN,0.00,Misterhouse,2013-01-02 19:30:00,
2013-01-02 11:35:00,44.1,32.0,30.87,North,353,7.0,7.0,15,0.00,PR,BKN,0.00,Misterhouse,2013-01-02 19:35:00,
2013-01-02 11:40:00,44.8,32.0,30.87,WNW,294,8.0,8.0,15,0.00,PR,BKN,0.00,Misterhouse,2013-01-02 19:40:00,
2013-01-02 11:45:00,45.1,32.0,30.87,NNW,346,8.0,8.0,15,0.00,PR,BKN,0.00,Misterhouse,2013-01-02 19:45:00,
2013-01-02 11:50:00,45.5,32.0,30.87,NW,311,6.0,6.0,15,0.00,PR,BKN,0.00,Misterhouse,2013-01-02 19:50:00,
2013-01-02 11:55:00,45.7,32.0,30.87,North,350,8.0,15.0,15,0.00,PR,BKN,0.00,Misterhouse,2013-01-02 19:55:00,
2013-01-02 12:00:00,45.5,32.0,30.87,NW,308,5.0,8.0,15,0.00,PR,BKN,0.00,Misterhouse,2013-01-02 20:00:00,
2013-01-02 12:10:00,45.7,32.0,30.87,NNW,327,5.0,10.0,15,0.00,PR,BKN,0.00,Misterhouse,2013-01-02 20:10:00,
2013-01-02 12:15:00,45.9,32.0,30.87,NNW,336,6.0,8.0,15,0.00,PR,BKN,0.00,Misterhouse,2013-01-02 20:15:00,
2013-01-02 12:20:00,46.0,32.0,30.84,WNW,300,6.0,6.0,15,0.00,PR,BKN,0.00,Misterhouse,2013-01-02 20:20:00,
2013-01-02 12:25:00,46.0,32.0,30.84,North,0,7.0,7.0,15,0.00,PR,BKN,0.00,Misterhouse,2013-01-02 20:25:00,
2013-01-02 12:30:00,46.2,32.0,30.84,NW,317,8.0,8.0,15,0.00,PR,BKN,0.00,Misterhouse,2013-01-02 20:30:00,
2013-01-02 12:35:00,46.6,32.0,30.84,NW,314,6.0,8.0,14,0.00,PR,BKN,0.00,Misterhouse,2013-01-02 20:35:00,
2013-01-02 12:40:00,47.1,32.0,30.84,NW,307,5.0,5.0,14,0.00,PR,BKN,0.00,Misterhouse,2013-01-02 20:40:00,
2013-01-02 12:45:00,47.7,32.0,30.84,NNW,334,4.0,10.0,14,0.00,PR,BKN,0.00,Misterhouse,2013-01-02 20:45:00,
2013-01-02 12:50:00,47.7,32.0,30.84,North,349,4.0,6.0,14,0.00,PR,BKN,0.00,Misterhouse,2013-01-02 20:50:00,
2013-01-02 12:55:00,47.8,32.0,30.84,WNW,300,5.0,8.0,14,0.00,PR,BKN,0.00,Misterhouse,2013-01-02 20:55:00,
2013-01-02 13:00:00,47.7,32.0,30.84,NW,324,7.0,8.0,14,0.00,PR,BKN,0.00,Misterhouse,2013-01-02 21:00:00,
2013-01-02 13:10:00,47.8,32.0,30.84,NW,314,6.0,6.0,14,0.00,PR,BKN,0.00,Misterhouse,2013-01-02 21:10:00,
2013-01-02 13:15:00,47.8,32.0,30.84,NW,317,8.0,8.0,14,0.00,PR,BKN,0.00,Misterhouse,2013-01-02 21:15:00,
2013-01-02 13:20:00,47.8,32.0,30.84,WNW,302,6.0,6.0,14,0.00,PR,BKN,0.00,Misterhouse,2013-01-02 21:20:00,
2013-01-02 13:25:00,48.0,32.0,30.84,NNW,327,4.0,8.0,14,0.00,PR,BKN,0.00,Misterhouse,2013-01-02 21:25:00,
2013-01-02 13:30:00,48.2,32.0,30.84,NW,323,5.0,8.0,14,0.00,PR,BKN,0.00,Misterhouse,2013-01-02 21:30:00,
2013-01-02 13:35:00,48.4,32.0,30.84,NNW,341,5.0,5.0,14,0.00,PR,BKN,0.00,Misterhouse,2013-01-02 21:35:00,
2013-01-02 13:40:00,49.1,32.0,30.84,WNW,292,4.0,4.0,14,0.00,PR,BKN,0.00,Misterhouse,2013-01-02 21:40:00,
2013-01-02 13:45:00,48.9,32.0,30.84,NW,313,6.0,6.0,14,0.00,PR,BKN,0.00,Misterhouse,2013-01-02 21:45:00,
2013-01-02 13:55:00,48.9,32.0,30.84,NW,319,4.0,0.0,14,0.00,PR,BKN,0.00,Misterhouse,2013-01-02 21:55:00,
2013-01-02 14:00:00,49.1,32.0,30.84,WNW,290,6.0,6.0,14,0.00,PR,BKN,0.00,Misterhouse,2013-01-02 22:00:00,
2013-01-02 14:05:00,49.1,32.0,30.84,NNW,332,4.0,7.0,14,0.00,PR,BKN,0.00,Misterhouse,2013-01-02 22:05:00,
2013-01-02 14:15:00,49.3,32.0,30.84,NNW,342,7.0,9.0,14,0.00,PR,BKN,0.00,Misterhouse,2013-01-02 22:15:00,
2013-01-02 14:20:00,49.1,32.0,30.81,NNW,336,5.0,8.0,14,0.00,PR,BKN,0.00,Misterhouse,2013-01-02 22:20:00,
2013-01-02 14:25:00,49.1,32.0,30.81,NW,316,8.0,8.0,14,0.00,PR,BKN,0.00,Misterhouse,2013-01-02 22:25:00,
2013-01-02 14:35:00,49.6,32.0,30.81,WNW,301,5.0,6.0,14,0.00,PR,BKN,0.00,Misterhouse,2013-01-02 22:35:00,
2013-01-02 14:45:00,49.6,32.0,30.81,NNW,337,5.0,5.0,14,0.00,PR,BKN,0.00,Misterhouse,2013-01-02 22:45:00,
2013-01-02 14:50:00,49.8,32.0,30.81,WNW,300,4.0,4.0,14,0.00,PR,BKN,0.00,Misterhouse,2013-01-02 22:50:00,
2013-01-02 14:55:00,49.6,32.0,30.81,NW,307,0.0,4.0,14,0.00,PR,BKN,0.00,Misterhouse,2013-01-02 22:55:00,
2013-01-02 15:00:00,49.6,32.0,30.81,NW,321,5.0,5.0,14,0.00,PR,BKN,0.00,Misterhouse,2013-01-02 23:00:00,
2013-01-02 15:10:00,49.8,32.0,30.81,NW,315,4.0,4.0,14,0.00,PR,BKN,0.00,Misterhouse,2013-01-02 23:10:00,
2013-01-02 15:15:00,49.8,32.0,30.81,North,0,4.0,4.0,14,0.00,PR,BKN,0.00,Misterhouse,2013-01-02 23:15:00,
2013-01-02 15:20:00,49.6,32.0,30.81,NW,310,3.0,4.0,14,0.00,PR,BKN,0.00,Misterhouse,2013-01-02 23:20:00,
2013-01-02 15:25:00,49.5,32.0,30.81,NW,308,4.0,5.0,14,0.00,PR,BKN,0.00,Misterhouse,2013-01-02 23:25:00,
2013-01-02 15:30:00,49.1,32.0,30.81,WNW,301,4.0,6.0,14,0.00,PR,BKN,0.00,Misterhouse,2013-01-02 23:30:00,
2013-01-02 15:35:00,48.9,32.0,30.81,WNW,293,3.0,0.0,14,0.00,PR,BKN,0.00,Misterhouse,2013-01-02 23:35:00,
2013-01-02 15:40:00,49.3,32.0,30.81,NW,309,3.0,4.0,14,0.00,PR,BKN,0.00,Misterhouse,2013-01-02 23:40:00,
2013-01-02 15:45:00,49.3,32.0,30.81,WNW,299,0.0,3.0,14,0.00,PR,BKN,0.00,Misterhouse,2013-01-02 23:45:00,
2013-01-02 15:50:00,48.7,32.0,30.81,WNW,292,0.0,0.0,14,0.00,PR,BKN,0.00,Misterhouse,2013-01-02 23:50:00,
2013-01-02 15:55:00,47.3,32.0,30.81,SW,225,0.0,4.0,14,0.00,PR,BKN,0.00,Misterhouse,2013-01-02 23:55:00,
2013-01-02 16:00:00,46.2,32.0,30.81,NW,323,4.0,4.0,15,0.00,PR,BKN,0.00,Misterhouse,2013-01-03 00:00:00,
2013-01-02 16:05:00,45.5,32.0,30.81,NW,317,0.0,0.0,15,0.00,PR,BKN,0.00,Misterhouse,2013-01-03 00:05:00,
2013-01-02 16:10:00,44.8,32.0,30.81,WNW,298,0.0,3.0,15,0.00,PR,BKN,0.00,Misterhouse,2013-01-03 00:10:00,
2013-01-02 16:15:00,44.2,32.0,30.81,NW,320,0.0,0.0,15,0.00,PR,BKN,0.00,Misterhouse,2013-01-03 00:15:00,
2013-01-02 16:20:00,43.7,32.0,30.81,NW,311,0.0,0.0,15,0.00,PR,BKN,0.00,Misterhouse,2013-01-03 00:20:00,
2013-01-02 16:30:00,43.2,32.0,30.81,NNW,328,0.0,0.0,15,0.00,PR,BKN,0.00,Misterhouse,2013-01-03 00:30:00,
2013-01-02 16:35:00,43.0,32.0,30.81,NNW,329,0.0,0.0,15,0.00,PR,BKN,0.00,Misterhouse,2013-01-03 00:35:00,
2013-01-02 16:45:00,42.4,32.0,30.81,NNW,341,4.0,0.0,16,0.00,PR,BKN,0.00,Misterhouse,2013-01-03 00:45:00,
2013-01-02 16:50:00,42.1,32.0,30.81,NNW,345,3.0,3.0,16,0.00,PR,BKN,0.00,Misterhouse,2013-01-03 00:50:00,
2013-01-02 16:55:00,41.9,32.0,30.81,NNW,345,0.0,0.0,16,0.00,PR,BKN,0.00,Misterhouse,2013-01-03 00:55:00,
2013-01-02 17:05:00,41.5,32.0,30.81,North,353,0.0,0.0,16,0.00,PR,BKN,0.00,Misterhouse,2013-01-03 01:05:00,
2013-01-02 17:10:00,41.4,32.0,30.81,North,353,0.0,0.0,16,0.00,PR,BKN,0.00,Misterhouse,2013-01-03 01:10:00,
2013-01-02 17:15:00,41.2,32.0,30.81,NNE,32,0.0,0.0,16,0.00,PR,BKN,0.00,Misterhouse,2013-01-03 01:15:00,
2013-01-02 17:20:00,41.0,32.0,30.81,NE,45,0.0,0.0,16,0.00,PR,BKN,0.00,Misterhouse,2013-01-03 01:20:00,
2013-01-02 17:25:00,40.6,32.0,30.81,NNE,29,0.0,0.0,16,0.00,PR,BKN,0.00,Misterhouse,2013-01-03 01:25:00,
2013-01-02 17:30:00,40.6,32.0,30.81,NNE,29,0.0,0.0,16,0.00,PR,BKN,0.00,Misterhouse,2013-01-03 01:30:00,
2013-01-02 17:40:00,40.5,32.0,30.84,NE,41,0.0,0.0,16,0.00,PR,BKN,0.00,Misterhouse,2013-01-03 01:40:00,
2013-01-02 17:45:00,40.5,32.0,30.84,NE,56,0.0,0.0,16,0.00,PR,BKN,0.00,Misterhouse,2013-01-03 01:45:00,
2013-01-02 17:50:00,40.3,32.0,30.84,NE,56,0.0,0.0,16,0.00,PR,BKN,0.00,Misterhouse,2013-01-03 01:50:00,
2013-01-02 17:55:00,40.3,32.0,30.84,ENE,62,0.0,0.0,16,0.00,PR,BKN,0.00,Misterhouse,2013-01-03 01:55:00,
2013-01-02 18:00:00,40.1,32.0,30.84,ENE,62,0.0,0.0,16,0.00,PR,BKN,0.00,Misterhouse,2013-01-03 02:00:00,
2013-01-02 18:05:00,40.3,32.0,30.84,ENE,61,0.0,0.0,16,0.00,PR,BKN,0.00,Misterhouse,2013-01-03 02:05:00,
2013-01-02 18:10:00,40.5,32.0,30.84,NE,56,2.0,3.0,16,0.00,PR,BKN,0.00,Misterhouse,2013-01-03 02:10:00,
2013-01-02 18:15:00,40.6,32.0,30.84,NE,56,0.0,0.0,16,0.00,PR,BKN,0.00,Misterhouse,2013-01-03 02:15:00,
2013-01-02 18:25:00,41.0,32.0,30.84,NE,55,0.0,0.0,16,0.00,PR,BKN,0.00,Misterhouse,2013-01-03 02:25:00,
2013-01-02 18:30:00,41.0,32.0,30.84,NE,55,0.0,0.0,16,0.00,PR,BKN,0.00,Misterhouse,2013-01-03 02:30:00,
2013-01-02 18:35:00,41.5,32.0,30.84,NE,55,0.0,0.0,16,0.00,PR,BKN,0.00,Misterhouse,2013-01-03 02:35:00,
2013-01-02 18:45:00,41.0,32.0,30.84,ENE,58,0.0,0.0,16,0.00,PR,BKN,0.00,Misterhouse,2013-01-03 02:45:00,
2013-01-02 18:55:00,41.5,32.0,30.84,NNE,19,2.0,0.0,16,0.00,PR,BKN,0.00,Misterhouse,2013-01-03 02:55:00,
2013-01-02 19:05:00,41.2,32.0,30.84,NNW,335,0.0,0.0,16,0.00,PR,BKN,0.00,Misterhouse,2013-01-03 03:05:00,
2013-01-02 19:10:00,40.5,32.0,30.84,SW,227,0.0,0.0,16,0.00,PR,BKN,0.00,Misterhouse,2013-01-03 03:10:00,
2013-01-02 19:15:00,40.5,32.0,30.84,SSW,206,0.0,0.0,16,0.00,PR,BKN,0.00,Misterhouse,2013-01-03 03:15:00,
2013-01-02 19:20:00,40.6,32.0,30.84,SSW,205,0.0,0.0,16,0.00,PR,BKN,0.00,Misterhouse,2013-01-03 03:20:00,
2013-01-02 19:30:00,40.8,32.0,30.84,SSW,204,0.0,0.0,16,0.00,PR,BKN,0.00,Misterhouse,2013-01-03 03:30:00,
2013-01-02 19:40:00,41.0,32.0,30.84,SSW,204,0.0,0.0,16,0.00,PR,BKN,0.00,Misterhouse,2013-01-03 03:40:00,
2013-01-02 19:45:00,40.8,32.0,30.84,SSW,204,0.0,0.0,16,0.00,PR,BKN,0.00,Misterhouse,2013-01-03 03:45:00,
2013-01-02 19:55:00,40.5,32.0,30.84,SSW,204,0.0,0.0,16,0.00,PR,BKN,0.00,Misterhouse,2013-01-03 03:55:00,
2013-01-02 20:00:00,40.3,32.0,30.84,SW,236,3.0,4.0,16,0.00,PR,BKN,0.00,Misterhouse,2013-01-03 04:00:00,
2013-01-02 20:10:00,40.5,32.0,30.84,WSW,239,0.0,0.0,16,0.00,PR,BKN,0.00,Misterhouse,2013-01-03 04:10:00,
2013-01-02 20:15:00,40.3,32.0,30.84,WSW,239,0.0,0.0,16,0.00,PR,BKN,0.00,Misterhouse,2013-01-03 04:15:00,
2013-01-02 20:20:00,40.5,32.0,30.84,WSW,239,0.0,0.0,16,0.00,PR,BKN,0.00,Misterhouse,2013-01-03 04:20:00,
2013-01-02 20:25:00,40.8,32.0,30.84,WSW,240,0.0,0.0,16,0.00,PR,BKN,0.00,Misterhouse,2013-01-03 04:25:00,
2013-01-02 20:30:00,41.0,32.0,30.84,WSW,239,0.0,0.0,16,0.00,PR,BKN,0.00,Misterhouse,2013-01-03 04:30:00,
2013-01-02 20:35:00,41.0,32.0,30.84,SW,216,0.0,0.0,16,0.00,PR,BKN,0.00,Misterhouse,2013-01-03 04:35:00,
2013-01-02 20:40:00,41.0,32.0,30.84,SW,216,0.0,0.0,16,0.00,PR,BKN,0.00,Misterhouse,2013-01-03 04:40:00,
2013-01-02 20:45:00,41.0,32.0,30.84,SW,224,2.0,0.0,16,0.00,PR,BKN,0.00,Misterhouse,2013-01-03 04:45:00,
2013-01-02 20:50:00,40.8,32.0,30.84,SW,225,0.0,0.0,16,0.00,PR,BKN,0.00,Misterhouse,2013-01-03 04:50:00,
2013-01-02 20:55:00,41.2,32.0,30.84,SW,225,0.0,0.0,16,0.00,PR,BKN,0.00,Misterhouse,2013-01-03 04:55:00,
2013-01-02 21:05:00,41.2,32.0,30.84,North,5,3.0,0.0,16,0.00,PR,BKN,0.00,Misterhouse,2013-01-03 05:05:00,
2013-01-02 21:10:00,41.4,32.0,30.84,North,3,2.0,0.0,16,0.00,PR,BKN,0.00,Misterhouse,2013-01-03 05:10:00,
2013-01-02 21:15:00,41.2,32.0,30.84,North,3,0.0,0.0,16,0.00,PR,BKN,0.00,Misterhouse,2013-01-03 05:15:00,
2013-01-02 21:20:00,40.5,32.0,30.84,North,3,0.0,0.0,16,0.00,PR,BKN,0.00,Misterhouse,2013-01-03 05:20:00,
2013-01-02 21:25:00,40.1,32.0,30.84,North,3,0.0,0.0,16,0.00,PR,BKN,0.00,Misterhouse,2013-01-03 05:25:00,
2013-01-02 21:30:00,39.7,32.0,30.84,North,3,0.0,0.0,16,0.00,PR,BKN,0.00,Misterhouse,2013-01-03 05:30:00,
2013-01-02 21:40:00,39.7,32.0,30.84,North,3,0.0,0.0,16,0.00,PR,BKN,0.00,Misterhouse,2013-01-03 05:40:00,
2013-01-02 21:45:00,39.9,32.0,30.84,North,3,0.0,0.0,16,0.00,PR,BKN,0.00,Misterhouse,2013-01-03 05:45:00,
2013-01-02 21:50:00,40.3,32.0,30.84,North,3,0.0,0.0,16,0.00,PR,BKN,0.00,Misterhouse,2013-01-03 05:50:00,
2013-01-02 21:55:00,40.5,32.0,30.84,North,3,0.0,0.0,16,0.00,PR,BKN,0.00,Misterhouse,2013-01-03 05:55:00,
2013-01-02 22:05:00,40.1,32.0,30.84,North,3,0.0,0.0,16,0.00,PR,BKN,0.00,Misterhouse,2013-01-03 06:05:00,
2013-01-02 22:10:00,40.3,32.0,30.84,North,357,4.0,0.0,16,0.00,PR,BKN,0.00,Misterhouse,2013-01-03 06:10:00,
2013-01-02 22:15:00,39.9,32.0,30.84,North,357,0.0,0.0,16,0.00,PR,BKN,0.00,Misterhouse,2013-01-03 06:15:00,
2013-01-02 22:20:00,39.7,32.0,30.84,North,357,0.0,0.0,16,0.00,PR,BKN,0.00,Misterhouse,2013-01-03 06:20:00,
2013-01-02 22:25:00,39.7,32.0,30.84,North,4,0.0,3.0,16,0.00,PR,BKN,0.00,Misterhouse,2013-01-03 06:25:00,
2013-01-02 22:30:00,39.7,32.0,30.84,North,4,0.0,0.0,16,0.00,PR,BKN,0.00,Misterhouse,2013-01-03 06:30:00,
2013-01-02 22:35:00,39.6,32.0,30.84,ESE,103,2.0,0.0,16,0.00,PR,BKN,0.00,Misterhouse,2013-01-03 06:35:00,
2013-01-02 22:40:00,39.4,32.0,30.84,ESE,103,0.0,0.0,16,0.00,PR,BKN,0.00,Misterhouse,2013-01-03 06:40:00,
2013-01-02 22:45:00,39.2,32.0,30.84,ESE,103,0.0,0.0,16,0.00,PR,BKN,0.00,Misterhouse,2013-01-03 06:45:00,
2013-01-02 22:50:00,39.0,32.0,30.84,NE,49,0.0,0.0,16,0.00,PR,BKN,0.00,Misterhouse,2013-01-03 06:50:00,
2013-01-02 22:55:00,39.2,32.0,30.84,ESE,122,3.0,3.0,16,0.00,PR,BKN,0.00,Misterhouse,2013-01-03 06:55:00,
2013-01-02 23:00:00,39.4,32.0,30.84,NE,46,0.0,0.0,16,0.00,PR,BKN,0.00,Misterhouse,2013-01-03 07:00:00,
2013-01-02 23:10:00,39.6,32.0,30.84,ENE,73,0.0,0.0,16,0.00,PR,BKN,0.00,Misterhouse,2013-01-03 07:10:00,
2013-01-02 23:15:00,39.4,32.0,30.84,NE,54,2.0,2.0,16,0.00,PR,BKN,0.00,Misterhouse,2013-01-03 07:15:00,
2013-01-02 23:20:00,39.6,32.0,30.84,NE,46,0.0,0.0,16,0.00,PR,BKN,0.00,Misterhouse,2013-01-03 07:20:00,
2013-01-02 23:25:00,39.6,32.0,30.84,NE,43,0.0,0.0,16,0.00,PR,BKN,0.00,Misterhouse,2013-01-03 07:25:00,
2013-01-02 23:30:00,39.4,32.0,30.84,NE,43,0.0,0.0,16,0.00,PR,BKN,0.00,Misterhouse,2013-01-03 07:30:00,
2013-01-02 23:35:00,39.2,32.0,30.84,NE,48,0.0,0.0,16,0.00,PR,BKN,0.00,Misterhouse,2013-01-03 07:35:00,
2013-01-02 23:40:00,38.8,32.0,30.84,NE,48,0.0,0.0,16,0.00,PR,BKN,0.00,Misterhouse,2013-01-03 07:40:00,
2013-01-02 23:45:00,38.5,32.0,30.84,NE,48,0.0,0.0,16,0.00,PR,BKN,0.00,Misterhouse,2013-01-03 07:45:00,
2013-01-02 23:50:00,38.1,32.0,30.84,NE,54,0.0,0.0,16,0.00,PR,BKN,0.00,Misterhouse,2013-01-03 07:50:00,
2013-01-02 23:55:00,37.8,32.0,30.84,NE,54,0.0,0.0,16,0.00,PR,BKN,0.00,Misterhouse,2013-01-03 07:55:00,